createdAt,value
2023-02-19T00:02:01.157Z,12.10
2023-02-19T00:19:24.123Z,12.10
2023-02-19T00:24:22.038Z,12.10
2023-02-19T00:29:20.914Z,12.10
2023-02-19T00:36:50.107Z,12.00
2023-02-19T00:39:18.990Z,12.00
2023-02-19T00:44:16.717Z,12.00
2023-02-19T00:46:46.552Z,12.00
2023-02-19T00:49:18.163Z,12.00
2023-02-19T00:54:17.099Z,16.40
2023-02-19T01:11:40.119Z,11.90
2023-02-19T01:26:32.989Z,11.90
2023-02-19T01:29:03.335Z,11.90
2023-02-19T01:34:05.038Z,11.90
2023-02-19T01:36:35.072Z,11.90
2023-02-19T01:41:36.076Z,11.90
2023-02-19T01:44:08.846Z,11.90
2023-02-19T01:46:38.383Z,11.90
2023-02-19T01:49:09.838Z,11.90
2023-02-19T01:51:40.824Z,11.90
2023-02-19T01:54:12.268Z,11.90
2023-02-19T01:56:42.897Z,11.90
2023-02-19T01:59:13.177Z,11.90
2023-02-19T02:01:42.265Z,11.90
2023-02-19T02:04:13.018Z,11.90
2023-02-19T02:06:45.050Z,11.90
2023-02-19T02:14:32.444Z,11.90
2023-02-19T02:17:10.420Z,11.90
2023-02-19T02:20:02.540Z,11.90
2023-02-19T02:22:36.171Z,11.90
2023-02-19T02:25:51.245Z,11.90
2023-02-19T02:28:37.558Z,11.80
2023-02-19T02:31:11.225Z,11.80
2023-02-19T02:33:45.898Z,11.80
2023-02-19T02:36:19.332Z,11.80
2023-02-19T02:38:49.433Z,11.80
2023-02-19T02:41:22.826Z,11.80
2023-02-19T02:46:24.953Z,11.70
2023-02-19T02:48:57.681Z,11.70
2023-02-19T02:51:29.967Z,11.70
2023-02-19T02:54:30.844Z,11.60
2023-02-19T02:59:36.976Z,11.60
2023-02-19T03:02:14.584Z,11.60
2023-02-19T03:05:08.821Z,11.60
2023-02-19T03:07:40.533Z,11.50
2023-02-19T03:10:13.354Z,9.50
2023-02-19T03:13:01.528Z,11.40
2023-02-19T03:15:53.101Z,11.40
2023-02-19T03:18:41.999Z,11.30
2023-02-19T03:21:12.581Z,11.30
2023-02-19T03:24:01.700Z,11.30
2023-02-19T03:26:31.363Z,11.20
2023-02-19T03:31:49.692Z,11.20
2023-02-19T03:34:26.946Z,11.20
2023-02-19T03:37:01.893Z,11.10
2023-02-19T03:42:04.236Z,11.10
2023-02-19T03:44:41.870Z,11.10
2023-02-19T03:47:18.802Z,11.00
2023-02-19T03:49:54.386Z,11.00
2023-02-19T03:52:28.655Z,11.00
2023-02-19T03:55:03.015Z,11.00
2023-02-19T03:57:40.531Z,12.00
2023-02-19T04:00:15.156Z,10.90
2023-02-19T04:02:51.357Z,10.90
2023-02-19T04:05:23.743Z,10.90
2023-02-19T04:07:55.097Z,10.80
2023-02-19T04:10:29.115Z,10.80
2023-02-19T04:13:03.480Z,10.80
2023-02-19T04:15:34.775Z,10.80
2023-02-19T04:18:08.076Z,10.80
2023-02-19T04:20:41.058Z,10.80
2023-02-19T04:23:09.976Z,10.70
2023-02-19T04:25:40.742Z,10.70
2023-02-19T04:33:07.182Z,10.70
2023-02-19T04:38:05.311Z,10.70
2023-02-19T04:55:26.073Z,10.60
2023-02-19T05:12:46.653Z,10.60
2023-02-19T05:30:09.153Z,10.50
2023-02-19T05:47:30.302Z,10.50
2023-02-19T06:04:51.696Z,10.50
2023-02-19T06:09:51.574Z,10.50
2023-02-19T06:22:17.695Z,10.40
2023-02-19T06:39:38.703Z,10.30
2023-02-19T06:57:00.498Z,10.20
2023-02-19T07:14:23.827Z,10.00
2023-02-19T07:31:45.870Z,10.00
2023-02-19T07:39:14.726Z,9.30
2023-02-19T07:46:48.700Z,10.00
2023-02-19T08:04:27.710Z,10.20
2023-02-19T08:19:37.648Z,10.40
2023-02-19T08:32:00.094Z,9.60
2023-02-19T08:34:28.555Z,8.40
2023-02-19T08:36:58.216Z,10.50
2023-02-19T08:54:19.162Z,10.40
2023-02-19T09:04:15.090Z,8.70
2023-02-19T09:11:41.942Z,7.50
2023-02-19T09:29:03.671Z,10.60
2023-02-19T09:41:32.949Z,11.20
2023-02-19T09:44:05.504Z,11.20
2023-02-19T09:46:38.138Z,11.20
2023-02-19T09:49:12.973Z,11.10
2023-02-19T09:51:44.947Z,11.10
2023-02-19T09:54:19.817Z,11.20
2023-02-19T09:56:48.600Z,11.10
2023-02-19T09:59:22.584Z,11.00
2023-02-19T10:01:57.601Z,11.20
2023-02-19T10:09:29.444Z,11.10
2023-02-19T10:12:00.146Z,11.10
2023-02-19T10:14:37.285Z,11.10
2023-02-19T10:17:07.450Z,11.10
2023-02-19T10:22:05.568Z,11.10
2023-02-19T10:29:32.446Z,11.20
2023-02-19T10:32:21.357Z,11.20
2023-02-19T10:35:42.584Z,11.30
2023-02-19T10:38:18.382Z,11.40
2023-02-19T10:40:48.009Z,11.50
2023-02-19T10:43:28.434Z,11.60
2023-02-19T10:45:59.720Z,11.70
2023-02-19T10:48:31.784Z,11.90
2023-02-19T10:51:05.009Z,11.90
2023-02-19T10:53:42.328Z,11.80
2023-02-19T10:56:13.736Z,11.70
2023-02-19T11:01:19.679Z,11.50
2023-02-19T11:03:49.765Z,11.50
2023-02-19T11:06:21.472Z,11.50
2023-02-19T11:08:57.538Z,11.60
2023-02-19T11:11:33.832Z,11.80
2023-02-19T11:14:06.370Z,12.00
2023-02-19T11:16:45.332Z,8.60
2023-02-19T11:19:29.607Z,12.40
2023-02-19T11:21:59.251Z,12.60
2023-02-19T11:24:33.888Z,12.70
2023-02-19T11:27:05.020Z,11.70
2023-02-19T11:32:30.886Z,17.80
2023-02-19T11:35:22.630Z,13.40
2023-02-19T11:37:59.532Z,13.40
2023-02-19T11:40:53.269Z,13.30
2023-02-19T11:43:36.475Z,13.20
2023-02-19T11:46:10.760Z,13.00
2023-02-19T11:48:56.667Z,12.80
2023-02-19T11:51:38.069Z,9.60
2023-02-19T11:54:18.302Z,12.30
2023-02-19T11:56:56.457Z,12.10
2023-02-19T11:59:33.917Z,12.00
2023-02-19T12:02:28.319Z,11.80
2023-02-19T12:05:18.574Z,11.70
2023-02-19T12:08:14.130Z,11.60
2023-02-19T12:10:56.050Z,11.60
2023-02-19T12:13:33.196Z,11.70
2023-02-19T12:16:24.037Z,11.90
2023-02-19T12:19:10.339Z,12.20
2023-02-19T12:21:56.937Z,12.40
2023-02-19T12:24:48.712Z,12.70
2023-02-19T12:27:26.751Z,12.80
2023-02-19T12:30:17.213Z,12.90
2023-02-19T12:33:07.542Z,13.00
2023-02-19T12:35:47.730Z,13.10
2023-02-19T12:38:24.052Z,13.20
2023-02-19T12:41:14.753Z,13.20
2023-02-19T12:43:52.462Z,13.10
2023-02-19T12:46:25.842Z,13.10
2023-02-19T12:49:00.118Z,13.10
2023-02-19T12:51:31.909Z,13.00
2023-02-19T12:54:03.869Z,12.90
2023-02-19T12:56:36.319Z,12.80
2023-02-19T12:59:11.310Z,12.80
2023-02-19T13:01:48.040Z,12.70
2023-02-19T13:04:23.925Z,12.60
2023-02-19T13:06:57.720Z,12.50
2023-02-19T13:09:33.181Z,12.50
2023-02-19T13:12:06.248Z,12.20
2023-02-19T13:14:38.556Z,12.40
2023-02-19T13:17:17.917Z,12.40
2023-02-19T13:19:50.774Z,12.40
2023-02-19T13:22:43.112Z,12.40
2023-02-19T13:25:16.500Z,12.30
2023-02-19T13:27:58.690Z,12.40
2023-02-19T13:30:38.254Z,12.40
2023-02-19T13:33:22.502Z,17.30
2023-02-19T13:36:15.048Z,12.40
2023-02-19T13:38:46.096Z,12.40
2023-02-19T13:41:29.960Z,12.50
2023-02-19T13:44:01.799Z,12.50
2023-02-19T13:46:39.665Z,12.60
2023-02-19T13:49:40.845Z,12.70
2023-02-19T13:52:42.956Z,12.60
2023-02-19T13:55:52.094Z,12.60
2023-02-19T13:58:58.093Z,12.60
2023-02-19T14:02:12.466Z,12.70
2023-02-19T14:04:52.255Z,12.60
2023-02-19T14:07:55.566Z,12.70
2023-02-19T14:11:05.023Z,12.70
2023-02-19T14:14:06.829Z,12.70
2023-02-19T14:16:51.376Z,12.70
2023-02-19T14:19:52.125Z,12.70
2023-02-19T14:23:12.169Z,12.60
2023-02-19T14:25:50.315Z,12.50
2023-02-19T14:28:30.085Z,12.40
2023-02-19T14:31:01.847Z,12.40
2023-02-19T14:33:32.249Z,12.30
2023-02-19T14:36:07.057Z,15.60
2023-02-19T14:38:39.687Z,12.30
2023-02-19T14:41:11.433Z,12.30
2023-02-19T14:46:17.731Z,12.40
2023-02-19T14:48:48.804Z,12.30
2023-02-19T14:51:28.023Z,12.40
2023-02-19T14:53:58.318Z,12.30
2023-02-19T14:56:29.694Z,12.30
2023-02-19T14:59:33.045Z,12.30
2023-02-19T15:02:05.106Z,12.30
2023-02-19T15:04:38.053Z,12.30
2023-02-19T15:07:11.023Z,12.40
2023-02-19T15:09:42.697Z,12.40
2023-02-19T15:12:17.286Z,12.50
2023-02-19T15:14:46.596Z,13.20
2023-02-19T15:17:25.385Z,12.50
2023-02-19T15:22:28.568Z,12.40
2023-02-19T15:27:26.707Z,12.30
2023-02-19T15:32:27.371Z,12.30
2023-02-19T15:34:57.695Z,12.20
2023-02-19T15:42:26.935Z,12.10
2023-02-19T15:45:00.140Z,12.10
2023-02-19T15:47:37.617Z,12.10
2023-02-19T15:50:11.544Z,12.00
2023-02-19T15:52:49.934Z,12.00
2023-02-19T15:55:31.390Z,12.00
2023-02-19T15:58:08.720Z,11.90
2023-02-19T16:00:42.744Z,11.90
2023-02-19T16:03:20.300Z,12.00
2023-02-19T16:08:21.893Z,11.90
2023-02-19T16:10:58.051Z,11.90
2023-02-19T16:13:27.750Z,11.80
2023-02-19T16:16:16.153Z,11.80
2023-02-19T16:18:52.770Z,11.70
2023-02-19T16:21:24.234Z,11.70
2023-02-19T16:23:59.764Z,11.70
2023-02-19T16:28:58.477Z,11.60
2023-02-19T16:33:58.944Z,11.60
2023-02-19T16:36:38.152Z,11.50
2023-02-19T16:39:20.184Z,11.50
2023-02-19T16:42:14.616Z,16.30
2023-02-19T16:44:44.454Z,11.50
2023-02-19T16:47:27.402Z,11.50
2023-02-19T16:49:58.438Z,11.80
2023-02-19T17:02:24.825Z,11.40
2023-02-19T17:04:55.321Z,11.40
2023-02-19T17:07:26.042Z,11.40
2023-02-19T17:09:55.239Z,11.40
2023-02-19T17:24:48.419Z,11.30
2023-02-19T17:42:16.490Z,11.20
2023-02-19T17:59:44.779Z,11.10
2023-02-19T18:12:11.917Z,7.80
2023-02-19T18:14:46.633Z,11.00
2023-02-19T18:19:45.092Z,10.90
2023-02-19T18:24:47.678Z,10.90
2023-02-19T18:27:17.236Z,10.80
2023-02-19T18:29:50.613Z,10.80
2023-02-19T18:34:50.461Z,10.70
2023-02-19T18:37:19.839Z,10.70
2023-02-19T18:44:48.992Z,10.60
2023-02-19T18:49:47.420Z,10.60
2023-02-19T19:02:12.159Z,10.50
2023-02-19T19:07:11.399Z,10.40
2023-02-19T19:19:35.935Z,10.40
2023-02-19T19:36:58.763Z,10.20
2023-02-19T19:42:00.498Z,10.20
2023-02-19T19:54:28.494Z,10.20
2023-02-19T20:01:57.219Z,10.10
2023-02-19T20:04:35.119Z,10.20
2023-02-19T20:09:33.732Z,10.30
2023-02-19T20:12:07.946Z,10.20
2023-02-19T20:17:09.588Z,10.20
2023-02-19T20:24:36.556Z,10.10
2023-02-19T20:29:35.582Z,10.10
2023-02-19T20:39:35.675Z,10.00
2023-02-19T20:42:06.169Z,10.00
2023-02-19T20:52:06.281Z,10.00
2023-02-19T20:54:36.339Z,9.90
2023-02-19T20:57:07.062Z,9.90
2023-02-19T21:02:05.584Z,9.90
2023-02-19T21:12:02.589Z,10.50
2023-02-19T21:14:32.278Z,9.80
2023-02-19T21:29:24.094Z,9.80
2023-02-19T21:31:55.986Z,9.80
2023-02-19T21:34:26.840Z,9.80
2023-02-19T21:42:01.552Z,9.80
2023-02-19T21:47:00.099Z,9.80
2023-02-19T21:54:26.941Z,9.70
2023-02-19T22:04:33.339Z,9.70
2023-02-19T22:09:52.017Z,9.70
2023-02-19T22:12:21.336Z,9.70
2023-02-19T22:19:48.092Z,9.70
2023-02-19T22:37:12.108Z,9.70
2023-02-19T22:52:09.413Z,9.70
2023-02-19T22:54:39.393Z,9.60
2023-02-19T23:12:05.338Z,9.60
2023-02-19T23:29:30.916Z,9.60
2023-02-19T23:41:57.878Z,9.60
2023-02-19T23:44:27.984Z,9.60
